Time;durP1;ratioP1;P1;durP2;ratioP2;P2;SDS_P1;SDS_P2;PMS_P1;PMS_P2;Temp;Humidity;BMP_temperature;BMP_pressure;BME280_temperature;BME280_humidity;BME280_pressure;Samples;Min_cycle;Max_cycle;Signal;HPM_P1;HPM_P2
2023/01/16 00:00:50;;;;;;;7.63;3.38;;;;;;;;;;5097386;28;20035;-87
2023/01/16 00:03:16;;;;;;;8.02;3.75;;;;;;;;;;5115368;28;20031;-87
2023/01/16 00:05:42;;;;;;;6.68;3.40;;;;;;;;;;5115933;28;20088;-86
2023/01/16 00:08:08;;;;;;;5.28;3.00;;;;;;;;;;5115391;28;20062;-86
2023/01/16 00:10:33;;;;;;;15.68;5.57;;;;;;;;;;5115460;28;20478;-85
2023/01/16 00:12:59;;;;;;;33.17;11.55;;;;;;;;;;5114856;28;20023;-86
2023/01/16 00:15:24;;;;;;;23.52;7.68;;;;;;;;;;5113571;28;20031;-86
2023/01/16 00:17:50;;;;;;;10.57;4.32;;;;;;;;;;5124686;28;20012;-87
2023/01/16 00:20:16;;;;;;;10.93;4.35;;;;;;;;;;5118137;28;20541;-86
2023/01/16 00:22:42;;;;;;;9.55;3.85;;;;;;;;;;5098463;28;20039;-86
2023/01/16 00:25:07;;;;;;;18.67;4.95;;;;;;;;;;5097873;28;20031;-86
2023/01/16 00:27:33;;;;;;;19.25;5.82;;;;;;;;;;5116491;28;20032;-86
2023/01/16 00:29:58;;;;;;;12.30;4.88;;;;;;;;;;5097296;28;20035;-86
2023/01/16 00:32:24;;;;;;;16.70;5.55;;;;;;;;;;5116813;28;20039;-88
2023/01/16 00:34:49;;;;;;;9.63;4.00;;;;;;;;;;5118224;28;20027;-86
2023/01/16 00:37:15;;;;;;;10.25;3.92;;;;;;;;;;5118416;28;20038;-87
2023/01/16 00:39:40;;;;;;;9.15;3.60;;;;;;;;;;5098403;28;20035;-86
2023/01/16 00:42:06;;;;;;;7.38;3.25;;;;;;;;;;5098406;28;20031;-86
2023/01/16 00:44:32;;;;;;;8.15;3.28;;;;;;;;;;5098466;28;20123;-86
2023/01/16 00:46:58;;;;;;;13.10;4.53;;;;;;;;;;5116343;28;20059;-86
2023/01/16 00:49:23;;;;;;;10.40;3.97;;;;;;;;;;5116427;28;20113;-85
2023/01/16 00:51:49;;;;;;;12.10;3.72;;;;;;;;;;5097829;28;20027;-86
2023/01/16 00:54:14;;;;;;;10.88;3.65;;;;;;;;;;5115072;28;20031;-84
2023/01/16 00:56:40;;;;;;;7.10;3.08;;;;;;;;;;5119117;28;20063;-85
2023/01/16 00:59:05;;;;;;;7.05;2.90;;;;;;;;;;5103443;28;20031;-87
2023/01/16 01:01:31;;;;;;;6.13;3.00;;;;;;;;;;5117023;28;20031;-86
2023/01/16 01:03:58;;;;;;;5.07;2.70;;;;;;;;;;5116590;28;20043;-86
2023/01/16 01:06:24;;;;;;;4.85;2.40;;;;;;;;;;5117395;28;20063;-87
2023/01/16 01:08:49;;;;;;;5.90;2.42;;;;;;;;;;5117701;28;20068;-85
2023/01/16 01:11:15;;;;;;;3.75;2.10;;;;;;;;;;5099341;28;20027;-86
2023/01/16 01:13:42;;;;;;;4.47;2.00;;;;;;;;;;5119021;28;20039;-85
2023/01/16 01:16:08;;;;;;;4.65;2.50;;;;;;;;;;5118142;28;20449;-85
2023/01/16 01:18:34;;;;;;;3.50;2.05;;;;;;;;;;5114359;28;20057;-85
2023/01/16 01:21:00;;;;;;;4.38;2.53;;;;;;;;;;5095989;28;20082;-85
2023/01/16 01:23:26;;;;;;;9.63;4.13;;;;;;;;;;5113805;28;20515;-86
2023/01/16 01:25:52;;;;;;;14.95;5.53;;;;;;;;;;5113422;28;20385;-88
2023/01/16 01:28:18;;;;;;;8.27;3.45;;;;;;;;;;5113393;28;20118;-86
2023/01/16 01:30:44;;;;;;;8.48;3.95;;;;;;;;;;5122120;28;20096;-85
2023/01/16 01:33:09;;;;;;;4.07;2.38;;;;;;;;;;5100165;28;20494;-86
2023/01/16 01:35:35;;;;;;;4.40;1.80;;;;;;;;;;5097233;28;20043;-87
2023/01/16 01:38:01;;;;;;;3.10;1.65;;;;;;;;;;5115222;28;20027;-86
2023/01/16 01:40:26;;;;;;;3.92;2.08;;;;;;;;;;5079565;28;20063;-86
2023/01/16 01:42:53;;;;;;;3.83;2.13;;;;;;;;;;5096833;28;20411;-86
2023/01/16 01:45:31;;;;;;;5.18;2.17;;;;;;;;;;5115662;28;20104;-87
2023/01/16 01:48:11;;;;;;;4.30;2.20;;;;;;;;;;5115540;28;20031;-86
2023/01/16 01:50:51;;;;;;;4.13;2.28;;;;;;;;;;5115708;28;20133;-86
2023/01/16 01:53:31;;;;;;;4.18;1.98;;;;;;;;;;5097077;28;20023;-85
2023/01/16 01:56:05;;;;;;;3.70;2.10;;;;;;;;;;5115181;28;20499;-85
2023/01/16 01:58:33;;;;;;;3.67;2.08;;;;;;;;;;5080430;28;20038;-84
2023/01/16 02:00:59;;;;;;;2.50;1.50;;;;;;;;;;5124400;28;20388;-87
2023/01/16 02:03:41;;;;;;;1.83;1.20;;;;;;;;;;5116329;28;20129;-86
2023/01/16 02:06:13;;;;;;;3.05;1.35;;;;;;;;;;5098039;28;20036;-86
2023/01/16 02:08:44;;;;;;;3.05;1.70;;;;;;;;;;5080865;28;20081;-86
2023/01/16 02:11:25;;;;;;;2.67;1.52;;;;;;;;;;5116317;28;20096;-87
2023/01/16 02:14:01;;;;;;;1.90;1.20;;;;;;;;;;5096279;28;20038;-88
2023/01/16 02:19:32;;;;;;;2.22;1.20;;;;;;;;;;5113907;28;20035;-86
2023/01/16 02:22:18;;;;;;;1.10;0.95;;;;;;;;;;5113632;28;20391;-87
2023/01/16 02:24:56;;;;;;;5.32;1.33;;;;;;;;;;5114177;28;20031;-86
2023/01/16 02:27:52;;;;;;;2.10;1.00;;;;;;;;;;5113813;28;20023;-86
2023/01/16 02:30:52;;;;;;;1.48;0.90;;;;;;;;;;5113899;28;20028;-85
2023/01/16 02:33:32;;;;;;;1.85;0.90;;;;;;;;;;5078608;28;20031;-86
2023/01/16 02:36:34;;;;;;;1.23;0.85;;;;;;;;;;5113336;28;20040;-86
2023/01/16 02:39:10;;;;;;;0.95;0.70;;;;;;;;;;5101697;28;20100;-85
2023/01/16 02:41:49;;;;;;;1.13;0.70;;;;;;;;;;5094711;28;20059;-84
2023/01/16 02:44:36;;;;;;;1.67;0.90;;;;;;;;;;5121157;28;20244;-85
2023/01/16 02:47:31;;;;;;;1.35;0.93;;;;;;;;;;5097005;28;20036;-85
2023/01/16 02:50:35;;;;;;;1.10;0.90;;;;;;;;;;5096759;28;20060;-85
2023/01/16 02:53:12;;;;;;;3.88;1.00;;;;;;;;;;5057601;28;20099;-85
2023/01/16 02:56:08;;;;;;;1.20;0.90;;;;;;;;;;5118890;28;20035;-85
2023/01/16 02:58:38;;;;;;;1.40;0.90;;;;;;;;;;5118966;28;20119;-86
2023/01/16 03:01:05;;;;;;;1.23;0.85;;;;;;;;;;5083468;28;20035;-86
2023/01/16 03:03:36;;;;;;;0.93;0.80;;;;;;;;;;5109077;28;20028;-86
2023/01/16 03:06:17;;;;;;;1.77;0.90;;;;;;;;;;5118085;28;20044;-87
2023/01/16 03:08:48;;;;;;;1.55;0.90;;;;;;;;;;5117332;28;20056;-86
2023/01/16 03:11:22;;;;;;;1.20;0.70;;;;;;;;;;5117616;28;20039;-87
2023/01/16 03:13:58;;;;;;;1.25;0.80;;;;;;;;;;5099415;28;20027;-85
2023/01/16 03:16:51;;;;;;;1.00;0.60;;;;;;;;;;5099073;28;20543;-86
2023/01/16 03:19:31;;;;;;;1.08;0.70;;;;;;;;;;5112964;23;20039;-81
2023/01/16 03:22:07;;;;;;;2.80;0.70;;;;;;;;;;5101138;28;20035;-80
2023/01/16 03:25:10;;;;;;;1.88;0.60;;;;;;;;;;5117623;28;20035;-80
2023/01/16 03:27:54;;;;;;;0.73;0.40;;;;;;;;;;5122734;28;20027;-79
2023/01/16 03:30:35;;;;;;;0.63;0.60;;;;;;;;;;5119278;28;20473;-81
2023/01/16 03:33:09;;;;;;;1.30;0.60;;;;;;;;;;5118999;28;20031;-80
2023/01/16 03:35:41;;;;;;;0.95;0.50;;;;;;;;;;5118968;28;20035;-80
2023/01/16 03:38:11;;;;;;;1.27;0.50;;;;;;;;;;5100801;28;20040;-80
2023/01/16 03:40:42;;;;;;;1.02;0.50;;;;;;;;;;5118470;28;20039;-80
2023/01/16 03:43:26;;;;;;;1.08;0.50;;;;;;;;;;5118616;28;20049;-80
2023/01/16 03:46:00;;;;;;;0.70;0.50;;;;;;;;;;5100041;28;20039;-81
2023/01/16 03:48:38;;;;;;;0.30;0.30;;;;;;;;;;5100385;28;20035;-81
2023/01/16 03:51:11;;;;;;;1.02;0.22;;;;;;;;;;5100030;28;20033;-80
2023/01/16 03:53:47;;;;;;;1.33;0.52;;;;;;;;;;5118764;28;20043;-81
2023/01/16 03:56:36;;;;;;;0.25;0.22;;;;;;;;;;5099964;28;20031;-81
2023/01/16 03:59:02;;;;;;;0.40;0.40;;;;;;;;;;5118600;28;20047;-80
2023/01/16 04:01:53;;;;;;;1.67;0.40;;;;;;;;;;5100030;28;20092;-79
2023/01/16 04:04:26;;;;;;;1.05;0.30;;;;;;;;;;5116961;28;20522;-81
2023/01/16 04:06:58;;;;;;;0.52;0.40;;;;;;;;;;5117737;28;20472;-81
2023/01/16 04:09:26;;;;;;;0.50;0.40;;;;;;;;;;5117846;28;20051;-81
2023/01/16 04:11:53;;;;;;;0.68;0.50;;;;;;;;;;5100018;28;20073;-80
2023/01/16 04:14:21;;;;;;;0.30;0.30;;;;;;;;;;5117671;28;20043;-80
2023/01/16 04:16:47;;;;;;;2.60;0.35;;;;;;;;;;5117767;28;20081;-80
2023/01/16 04:19:14;;;;;;;0.63;0.30;;;;;;;;;;5117164;28;20031;-81
2023/01/16 04:21:44;;;;;;;0.90;0.30;;;;;;;;;;5116653;28;20039;-80
2023/01/16 04:24:09;;;;;;;0.70;0.40;;;;;;;;;;5097889;28;20031;-80
2023/01/16 04:26:35;;;;;;;1.13;0.50;;;;;;;;;;5116651;28;20032;-80
2023/01/16 04:29:00;;;;;;;1.05;0.35;;;;;;;;;;5116673;28;20034;-80
2023/01/16 04:31:28;;;;;;;1.60;0.50;;;;;;;;;;5098594;28;20035;-80
2023/01/16 04:33:54;;;;;;;1.17;0.38;;;;;;;;;;5116671;28;20031;-80
2023/01/16 04:36:19;;;;;;;0.30;0.30;;;;;;;;;;5117063;28;20054;-80
2023/01/16 04:38:45;;;;;;;0.30;0.30;;;;;;;;;;5098339;28;20479;-81
2023/01/16 04:41:10;;;;;;;0.70;0.47;;;;;;;;;;5116259;28;20039;-80
2023/01/16 04:43:36;;;;;;;0.95;0.50;;;;;;;;;;5115920;28;20038;-81
2023/01/16 04:46:01;;;;;;;1.02;0.60;;;;;;;;;;5114889;28;20500;-80
2023/01/16 04:48:27;;;;;;;1.13;0.55;;;;;;;;;;5098067;28;20028;-80
2023/01/16 04:50:52;;;;;;;1.85;0.50;;;;;;;;;;5116323;28;20036;-81
2023/01/16 04:53:18;;;;;;;0.60;0.40;;;;;;;;;;5097933;28;20441;-80
2023/01/16 04:55:43;;;;;;;0.63;0.52;;;;;;;;;;5115861;28;20038;-81
2023/01/16 04:58:08;;;;;;;1.13;0.40;;;;;;;;;;5115517;28;20027;-81
2023/01/16 05:00:34;;;;;;;1.13;0.50;;;;;;;;;;5115355;28;20499;-80
2023/01/16 05:02:59;;;;;;;1.10;0.43;;;;;;;;;;5097462;28;20047;-80
2023/01/16 05:05:25;;;;;;;0.98;0.40;;;;;;;;;;5115010;28;20119;-81
2023/01/16 05:08:15;;;;;;;2.53;0.90;;;;;;;;;;5115920;28;20023;-79
2023/01/16 05:10:37;;;;;;;2.47;1.60;;;;;;;;;;5096983;28;20035;-80
2023/01/16 05:13:03;;;;;;;0.95;0.85;;;;;;;;;;5114251;28;20024;-80
2023/01/16 05:15:29;;;;;;;2.13;1.10;;;;;;;;;;5114947;28;20403;-80
2023/01/16 05:17:54;;;;;;;3.63;1.30;;;;;;;;;;5115632;28;20558;-81
2023/01/16 05:20:20;;;;;;;2.03;1.40;;;;;;;;;;5114433;28;20038;-79
2023/01/16 05:22:47;;;;;;;4.35;2.70;;;;;;;;;;5113684;28;20063;-80
2023/01/16 05:25:12;;;;;;;3.03;2.00;;;;;;;;;;5115169;28;20062;-79
2023/01/16 05:27:38;;;;;;;2.58;1.42;;;;;;;;;;5113487;28;20046;-80
2023/01/16 05:30:03;;;;;;;4.07;1.98;;;;;;;;;;5115635;28;20031;-79
2023/01/16 05:32:29;;;;;;;1.58;0.77;;;;;;;;;;5097215;28;20065;-80
2023/01/16 05:34:54;;;;;;;4.28;1.88;;;;;;;;;;5114835;28;20035;-80
2023/01/16 05:37:20;;;;;;;3.90;2.00;;;;;;;;;;5115217;28;20043;-80
2023/01/16 05:39:46;;;;;;;3.85;1.83;;;;;;;;;;5114790;28;20517;-80
2023/01/16 05:42:20;;;;;;;7.22;2.88;;;;;;;;;;5115113;28;20452;-80
2023/01/16 05:44:52;;;;;;;5.88;2.50;;;;;;;;;;5096735;28;20036;-80
2023/01/16 05:47:19;;;;;;;6.75;2.85;;;;;;;;;;5114197;28;20032;-79
2023/01/16 05:49:45;;;;;;;3.05;1.80;;;;;;;;;;5113228;28;20075;-80
2023/01/16 05:52:10;;;;;;;3.80;0.90;;;;;;;;;;5097396;28;20031;-80
2023/01/16 05:54:36;;;;;;;5.22;2.45;;;;;;;;;;5114956;28;20443;-80
2023/01/16 05:57:01;;;;;;;4.47;2.15;;;;;;;;;;5113729;28;20043;-79
2023/01/16 05:59:27;;;;;;;2.53;1.48;;;;;;;;;;5114799;28;20111;-80
2023/01/16 06:01:52;;;;;;;4.72;1.92;;;;;;;;;;5114609;28;20036;-81
2023/01/16 06:04:19;;;;;;;4.53;1.85;;;;;;;;;;5114358;28;20035;-79
2023/01/16 06:06:45;;;;;;;2.55;1.50;;;;;;;;;;5114901;28;20081;-80
2023/01/16 06:09:11;;;;;;;2.08;1.10;;;;;;;;;;5114811;28;20046;-79
2023/01/16 06:11:37;;;;;;;3.00;1.65;;;;;;;;;;5115422;28;20035;-80
2023/01/16 06:14:04;;;;;;;2.65;0.90;;;;;;;;;;5113750;28;20445;-79
2023/01/16 06:16:30;;;;;;;2.13;0.68;;;;;;;;;;5114235;28;20061;-79
2023/01/16 06:18:56;;;;;;;1.27;0.68;;;;;;;;;;5113800;28;20122;-80
2023/01/16 06:21:22;;;;;;;1.70;1.13;;;;;;;;;;5094735;28;20127;-80
2023/01/16 06:23:47;;;;;;;0.73;0.70;;;;;;;;;;5120093;28;20055;-80
2023/01/16 06:26:13;;;;;;;1.85;0.70;;;;;;;;;;5115480;28;20437;-80
2023/01/16 06:28:38;;;;;;;0.70;0.65;;;;;;;;;;5097792;28;20509;-80
2023/01/16 06:31:04;;;;;;;1.25;0.60;;;;;;;;;;5120235;28;20027;-81
2023/01/16 06:33:30;;;;;;;1.60;1.08;;;;;;;;;;5122176;28;20016;-79
2023/01/16 06:35:56;;;;;;;3.25;1.10;;;;;;;;;;5102850;28;20047;-80
2023/01/16 06:38:22;;;;;;;1.92;1.00;;;;;;;;;;5121379;28;20032;-79
2023/01/16 06:40:47;;;;;;;2.70;1.20;;;;;;;;;;5121780;28;20058;-79
2023/01/16 06:43:15;;;;;;;0.95;0.80;;;;;;;;;;5121645;28;20453;-80
2023/01/16 06:45:40;;;;;;;1.70;0.85;;;;;;;;;;5102948;28;20031;-79
2023/01/16 06:48:12;;;;;;;2.80;1.08;;;;;;;;;;5119035;28;20125;-79
2023/01/16 06:50:43;;;;;;;2.30;0.90;;;;;;;;;;5115701;28;20035;-76
2023/01/16 06:53:09;;;;;;;2.22;0.90;;;;;;;;;;5115348;28;20031;-77
2023/01/16 06:55:34;;;;;;;3.20;1.00;;;;;;;;;;5117429;28;20058;-79
2023/01/16 06:58:00;;;;;;;0.98;0.80;;;;;;;;;;5102261;28;20046;-77
2023/01/16 07:00:26;;;;;;;0.93;0.73;;;;;;;;;;5113082;28;20032;-78
2023/01/16 07:02:56;;;;;;;0.85;0.70;;;;;;;;;;5099633;28;20515;-79
2023/01/16 07:05:26;;;;;;;1.48;0.88;;;;;;;;;;5099284;28;20038;-79
2023/01/16 07:07:52;;;;;;;1.88;1.02;;;;;;;;;;5081554;28;20028;-80
2023/01/16 07:10:21;;;;;;;1.52;0.90;;;;;;;;;;5080678;28;20074;-81
2023/01/16 07:12:52;;;;;;;1.83;1.10;;;;;;;;;;5097231;28;20024;-80
2023/01/16 07:23:43;;;;;;;1.90;1.00;;;;;;;;;;5096869;28;20047;-80
2023/01/16 07:26:12;;;;;;;1.80;1.10;;;;;;;;;;5097864;28;20500;-81
2023/01/16 07:28:38;;;;;;;1.50;1.10;;;;;;;;;;5097308;28;20024;-80
2023/01/16 07:31:05;;;;;;;1.40;0.90;;;;;;;;;;5097807;28;20115;-81
2023/01/16 07:33:30;;;;;;;1.75;1.00;;;;;;;;;;5096707;28;20467;-80
2023/01/16 07:35:56;;;;;;;1.48;0.80;;;;;;;;;;5095560;28;20554;-80
2023/01/16 07:38:21;;;;;;;1.65;1.05;;;;;;;;;;5094977;28;20032;-80
2023/01/16 07:40:47;;;;;;;3.45;1.08;;;;;;;;;;5077854;28;20024;-81
2023/01/16 07:43:12;;;;;;;1.27;0.90;;;;;;;;;;5097760;28;20051;-80
2023/01/16 07:45:38;;;;;;;1.25;0.80;;;;;;;;;;5097372;28;20036;-80
2023/01/16 07:48:04;;;;;;;1.35;0.80;;;;;;;;;;5097513;28;20380;-81
2023/01/16 07:50:29;;;;;;;1.27;0.80;;;;;;;;;;5098173;28;20085;-81
2023/01/16 07:52:55;;;;;;;0.90;0.70;;;;;;;;;;5080630;28;20127;-81
2023/01/16 07:55:21;;;;;;;2.05;0.75;;;;;;;;;;5080121;28;20553;-81
2023/01/16 07:57:47;;;;;;;2.00;0.80;;;;;;;;;;5079537;28;20044;-79
2023/01/16 08:00:13;;;;;;;0.80;0.70;;;;;;;;;;5079978;28;20036;-82
2023/01/16 08:02:40;;;;;;;2.47;0.90;;;;;;;;;;5098596;28;20502;-82
2023/01/16 08:05:06;;;;;;;1.20;0.80;;;;;;;;;;5096468;28;20032;-82
2023/01/16 08:07:31;;;;;;;1.35;0.80;;;;;;;;;;5097753;28;20164;-82
2023/01/16 08:09:57;;;;;;;2.97;0.98;;;;;;;;;;5097346;28;20511;-83
2023/01/16 08:12:22;;;;;;;1.23;0.70;;;;;;;;;;5097092;28;20503;-82
2023/01/16 08:14:48;;;;;;;2.05;0.90;;;;;;;;;;5097763;28;20032;-83
2023/01/16 08:17:13;;;;;;;1.48;0.70;;;;;;;;;;5099610;28;20050;-83
2023/01/16 08:19:39;;;;;;;1.42;0.70;;;;;;;;;;5099134;28;20042;-82
2023/01/16 08:22:04;;;;;;;1.63;0.90;;;;;;;;;;5097310;28;20563;-80
2023/01/16 08:24:30;;;;;;;0.85;0.60;;;;;;;;;;5096058;28;20032;-82
2023/01/16 08:26:56;;;;;;;4.68;0.70;;;;;;;;;;5097931;28;20122;-81
2023/01/16 08:29:23;;;;;;;0.55;0.55;;;;;;;;;;5096815;28;20036;-81
2023/01/16 08:31:48;;;;;;;0.85;0.70;;;;;;;;;;5097991;28;20062;-80
2023/01/16 08:34:14;;;;;;;0.98;0.70;;;;;;;;;;5116618;28;20491;-81
2023/01/16 08:36:40;;;;;;;7.53;4.55;;;;;;;;;;5117169;28;20407;-83
2023/01/16 08:39:06;;;;;;;5.15;3.10;;;;;;;;;;5098010;28;20152;-81
2023/01/16 08:52:37;;;;;;;2.08;1.10;;;;;;;;;;5098145;28;20043;-82
2023/01/16 08:55:03;;;;;;;39.75;19.20;;;;;;;;;;5097725;28;20085;-83
2023/01/16 08:57:29;;;;;;;5.95;2.42;;;;;;;;;;5117103;28;20372;-80
2023/01/16 08:59:56;;;;;;;14.90;7.60;;;;;;;;;;5116481;28;20122;-81
2023/01/16 09:02:22;;;;;;;7.18;3.03;;;;;;;;;;5118058;28;20028;-81
2023/01/16 09:04:48;;;;;;;5.60;2.22;;;;;;;;;;5100826;28;20094;-81
2023/01/16 09:07:15;;;;;;;18.92;7.80;;;;;;;;;;5120646;28;20518;-81
2023/01/16 09:09:40;;;;;;;1.13;0.80;;;;;;;;;;5120392;28;20399;-80
2023/01/16 09:14:55;;;;;;;62.45;29.10;;;;;;;;;;5120789;28;20031;-81
2023/01/16 09:17:20;;;;;;;10.32;5.43;;;;;;;;;;5120302;28;20033;-82
2023/01/16 09:19:46;;;;;;;20.58;8.80;;;;;;;;;;5101052;28;20035;-81
2023/01/16 09:22:11;;;;;;;12.65;5.63;;;;;;;;;;5100942;28;20506;-81
2023/01/16 09:24:38;;;;;;;13.07;5.93;;;;;;;;;;5119367;28;20046;-82
2023/01/16 09:27:04;;;;;;;8.40;4.13;;;;;;;;;;5119884;28;20031;-79
2023/01/16 09:29:30;;;;;;;4.30;1.98;;;;;;;;;;5119901;28;20130;-82
2023/01/16 09:31:56;;;;;;;1.77;0.80;;;;;;;;;;5084602;28;20043;-81
2023/01/16 09:34:21;;;;;;;4.63;2.22;;;;;;;;;;5119332;28;20035;-80
2023/01/16 09:36:47;;;;;;;20.33;9.48;;;;;;;;;;5101489;28;20027;-82
2023/01/16 09:39:12;;;;;;;4.82;2.70;;;;;;;;;;5100895;28;20422;-81
2023/01/16 09:45:04;;;;;;;5.18;3.08;;;;;;;;;;5135013;22;20040;-88
2023/01/16 09:47:32;;;;;;;21.48;12.55;;;;;;;;;;5113950;28;20036;-86
2023/01/16 09:50:09;;;;;;;7.63;2.70;;;;;;;;;;5114036;28;20027;-86
2023/01/16 09:58:35;;;;;;;2.20;1.25;;;;;;;;;;5076459;28;20036;-86
2023/01/16 10:01:02;;;;;;;4.27;0.87;;;;;;;;;;5057900;28;20036;-85
2023/01/16 10:03:28;;;;;;;7.78;4.00;;;;;;;;;;5060470;28;20033;-86
2023/01/16 10:06:05;;;;;;;2.17;1.08;;;;;;;;;;5077272;28;20120;-86
2023/01/16 10:08:41;;;;;;;19.05;9.13;;;;;;;;;;5068476;28;20052;-85
2023/01/16 10:11:17;;;;;;;1.70;0.70;;;;;;;;;;5064016;28;20051;-87
2023/01/16 10:14:05;;;;;;;0.95;0.80;;;;;;;;;;5083425;28;20024;-85
2023/01/16 10:17:12;;;;;;;2.92;1.30;;;;;;;;;;5103123;28;20051;-87
2023/01/16 10:19:44;;;;;;;1.10;0.70;;;;;;;;;;5099551;28;20055;-87
2023/01/16 10:22:16;;;;;;;2.45;0.90;;;;;;;;;;5098385;28;20039;-87
2023/01/16 10:25:19;;;;;;;4.65;2.53;;;;;;;;;;5085871;28;20038;-84
2023/01/16 10:27:58;;;;;;;0.98;0.60;;;;;;;;;;5082164;28;20044;-86
2023/01/16 10:30:30;;;;;;;1.50;0.70;;;;;;;;;;5100279;28;20040;-85
2023/01/16 10:33:16;;;;;;;1.77;0.60;;;;;;;;;;5099261;28;20134;-87
2023/01/16 10:35:48;;;;;;;1.10;0.70;;;;;;;;;;5067879;28;20039;-87
2023/01/16 10:38:43;;;;;;;1.15;0.73;;;;;;;;;;5100410;28;20054;-89
2023/01/16 10:50:01;;;;;;;4.88;3.65;;;;;;;;;;5099469;28;20082;-86
2023/01/16 10:52:27;;;;;;;14.35;6.78;;;;;;;;;;5080432;28;20032;-86
2023/01/16 10:54:56;;;;;;;6.93;4.70;;;;;;;;;;5097902;28;20012;-86
2023/01/16 10:57:22;;;;;;;5.65;2.83;;;;;;;;;;5098529;28;20077;-87
2023/01/16 10:59:51;;;;;;;11.95;5.45;;;;;;;;;;5080126;28;20043;-88
2023/01/16 11:02:22;;;;;;;7.38;1.73;;;;;;;;;;5079219;28;20051;-85
2023/01/16 11:04:48;;;;;;;10.10;6.35;;;;;;;;;;5083993;28;20033;-88
2023/01/16 11:07:22;;;;;;;2.47;0.70;;;;;;;;;;5075987;28;20024;-87
2023/01/16 11:09:48;;;;;;;1.45;0.70;;;;;;;;;;5059685;28;20083;-86
2023/01/16 11:18:28;;;;;;;3.75;0.98;;;;;;;;;;5074991;28;20048;-85
2023/01/16 11:20:54;;;;;;;1.30;1.00;;;;;;;;;;5075818;28;20067;-84
2023/01/16 11:23:35;;;;;;;1.60;0.70;;;;;;;;;;5084294;28;20083;-85
2023/01/16 11:26:02;;;;;;;0.85;0.60;;;;;;;;;;5075372;28;20047;-87
2023/01/16 11:28:30;;;;;;;2.30;1.20;;;;;;;;;;5084563;28;20021;-85
2023/01/16 11:31:06;;;;;;;2.35;0.70;;;;;;;;;;5075315;28;20115;-86
2023/01/16 11:33:40;;;;;;;4.50;1.10;;;;;;;;;;5075600;28;20531;-86
2023/01/16 11:36:06;;;;;;;13.60;7.15;;;;;;;;;;5076130;28;20032;-86
2023/01/16 11:38:35;;;;;;;0.85;0.77;;;;;;;;;;5076840;28;20040;-87
2023/01/16 11:41:03;;;;;;;9.90;4.50;;;;;;;;;;5058030;28;20039;-86
2023/01/16 11:46:41;;;;;;;4.82;2.45;;;;;;;;;;5075863;28;20397;-87
2023/01/16 11:49:18;;;;;;;1.08;0.88;;;;;;;;;;5074966;28;20093;-88
2023/01/16 11:51:44;;;;;;;0.88;0.60;;;;;;;;;;5076446;28;20029;-89
2023/01/16 11:54:15;;;;;;;0.82;0.60;;;;;;;;;;5074792;28;20033;-86
2023/01/16 11:56:50;;;;;;;1.70;0.60;;;;;;;;;;5076695;28;20473;-86
2023/01/16 11:59:50;;;;;;;0.90;0.75;;;;;;;;;;5057847;28;20135;-88
2023/01/16 12:03:00;;;;;;;1.77;0.70;;;;;;;;;;5075594;28;20408;-89
2023/01/16 12:05:53;;;;;;;1.10;0.90;;;;;;;;;;4993974;28;20042;-86
2023/01/16 12:08:51;;;;;;;1.10;0.70;;;;;;;;;;4994008;28;20096;-86
2023/01/16 12:11:46;;;;;;;4.07;1.08;;;;;;;;;;5068764;28;20048;-86
2023/01/16 12:14:20;;;;;;;1.25;0.90;;;;;;;;;;5053595;28;20123;-85
2023/01/16 12:16:53;;;;;;;3.85;1.25;;;;;;;;;;5057310;28;20519;-86
2023/01/16 12:19:28;;;;;;;2.60;1.15;;;;;;;;;;5056117;28;20097;-85
2023/01/16 12:22:14;;;;;;;4.40;1.92;;;;;;;;;;5057341;28;20040;-84
2023/01/16 12:25:01;;;;;;;3.42;2.15;;;;;;;;;;5073768;28;20039;-84
2023/01/16 12:27:36;;;;;;;3.60;1.00;;;;;;;;;;5056370;28;20052;-87
2023/01/16 12:30:30;;;;;;;1.75;0.95;;;;;;;;;;5055322;28;20155;-84
2023/01/16 12:33:13;;;;;;;3.25;2.33;;;;;;;;;;5064055;28;20048;-83
2023/01/16 12:36:08;;;;;;;2.85;1.75;;;;;;;;;;5057709;28;20568;-86
2023/01/16 12:38:41;;;;;;;10.88;6.70;;;;;;;;;;5003889;28;20046;-86
2023/01/16 12:44:27;;;;;;;2.47;1.60;;;;;;;;;;5057287;28;20059;-87
2023/01/16 12:46:58;;;;;;;6.97;3.67;;;;;;;;;;5074996;28;20033;-86
2023/01/16 12:49:33;;;;;;;2.88;1.50;;;;;;;;;;5074470;28;20028;-86
2023/01/16 12:52:11;;;;;;;1.30;0.80;;;;;;;;;;5059313;28;20028;-85
2023/01/16 12:54:50;;;;;;;2.72;1.70;;;;;;;;;;5075805;28;20025;-84
2023/01/16 12:57:18;;;;;;;2.75;1.70;;;;;;;;;;5057847;28;20032;-86
2023/01/16 12:59:48;;;;;;;8.98;4.68;;;;;;;;;;5057427;28;20036;-86
2023/01/16 13:02:55;;;;;;;3.08;1.58;;;;;;;;;;5057147;28;20036;-87
2023/01/16 13:05:26;;;;;;;4.15;2.15;;;;;;;;;;5046060;28;20090;-84
2023/01/16 13:08:22;;;;;;;3.35;1.55;;;;;;;;;;5073146;28;20100;-86
2023/01/16 13:13:47;;;;;;;2.47;1.40;;;;;;;;;;5074213;28;20024;-86
2023/01/16 13:16:27;;;;;;;0.88;0.70;;;;;;;;;;5074242;28;20040;-84
2023/01/16 13:19:02;;;;;;;3.63;1.92;;;;;;;;;;5074903;28;20068;-85
2023/01/16 13:21:33;;;;;;;1.50;0.90;;;;;;;;;;5073366;28;20042;-85
2023/01/16 13:24:10;;;;;;;2.92;1.70;;;;;;;;;;5071049;28;20032;-86
2023/01/16 13:26:36;;;;;;;4.57;1.52;;;;;;;;;;5073331;28;20032;-84
2023/01/16 13:29:13;;;;;;;5.22;2.30;;;;;;;;;;5073022;28;20033;-86
2023/01/16 13:32:10;;;;;;;2.35;1.30;;;;;;;;;;5072435;28;20036;-84
2023/01/16 13:34:42;;;;;;;1.75;1.00;;;;;;;;;;5064434;28;20045;-88
2023/01/16 13:37:21;;;;;;;2.55;1.00;;;;;;;;;;5073105;28;20033;-87
2023/01/16 13:39:52;;;;;;;4.40;2.10;;;;;;;;;;5071160;28;20089;-88
2023/01/16 13:42:21;;;;;;;2.30;1.42;;;;;;;;;;5054869;28;20410;-87
2023/01/16 13:47:39;;;;;;;4.78;1.63;;;;;;;;;;5071984;28;20481;-86
2023/01/16 13:50:20;;;;;;;17.35;5.15;;;;;;;;;;5066082;28;20032;-85
2023/01/16 13:52:46;;;;;;;36.78;18.23;;;;;;;;;;5055080;28;20036;-85
2023/01/16 13:55:28;;;;;;;18.35;7.20;;;;;;;;;;5093443;28;20189;-85
2023/01/16 13:58:07;;;;;;;11.57;4.70;;;;;;;;;;5095595;28;20032;-89
2023/01/16 14:00:36;;;;;;;2.30;1.10;;;;;;;;;;5094452;28;20475;-87
2023/01/16 14:03:19;;;;;;;1.42;0.70;;;;;;;;;;5094123;28;20115;-86
2023/01/16 14:05:48;;;;;;;2.05;1.13;;;;;;;;;;5093738;28;20040;-83
2023/01/16 14:12:09;;;;;;;4.45;1.80;;;;;;;;;;5059984;28;20036;-85
2023/01/16 14:17:49;;;;;;;3.78;1.50;;;;;;;;;;5093677;28;20032;-84
2023/01/16 14:20:37;;;;;;;1.65;1.20;;;;;;;;;;5091785;28;20032;-87
2023/01/16 14:25:55;;;;;;;2.15;1.00;;;;;;;;;;5074824;28;20040;-86
2023/01/16 14:28:21;;;;;;;2.22;0.90;;;;;;;;;;5092034;28;20408;-86
2023/01/16 14:30:47;;;;;;;2.17;1.17;;;;;;;;;;5093016;28;20042;-86
2023/01/16 14:33:17;;;;;;;1.00;0.70;;;;;;;;;;5092475;28;20036;-86
2023/01/16 14:35:55;;;;;;;1.45;0.90;;;;;;;;;;5094534;28;20042;-84
2023/01/16 14:38:24;;;;;;;1.67;0.85;;;;;;;;;;5081437;28;20050;-86
2023/01/16 14:56:01;;;;;;;6.97;2.55;;;;;;;;;;5080774;28;20064;-86
2023/01/16 14:58:52;;;;;;;2.85;1.60;;;;;;;;;;5099961;28;20036;-86
2023/01/16 15:04:15;;;;;;;3.50;1.50;;;;;;;;;;5104589;28;20020;-88
2023/01/16 15:06:46;;;;;;;4.38;2.38;;;;;;;;;;5100476;28;20507;-86
2023/01/16 15:09:17;;;;;;;2.85;2.17;;;;;;;;;;5064136;28;20032;-87
2023/01/16 15:11:58;;;;;;;4.07;2.30;;;;;;;;;;5080028;28;20032;-85
2023/01/16 15:14:30;;;;;;;5.72;3.00;;;;;;;;;;5093954;28;20080;-87
2023/01/16 15:22:54;;;;;;;2.13;1.13;;;;;;;;;;5088328;28;20104;-85
2023/01/16 15:25:34;;;;;;;1.60;1.10;;;;;;;;;;5077490;28;20032;-87
2023/01/16 15:28:20;;;;;;;2.47;1.50;;;;;;;;;;5096488;28;20036;-89
2023/01/16 15:30:51;;;;;;;1.80;1.20;;;;;;;;;;5077732;28;20135;-88
2023/01/16 15:33:51;;;;;;;1.50;1.10;;;;;;;;;;5095384;28;20040;-86
2023/01/16 15:36:18;;;;;;;1.95;1.15;;;;;;;;;;5094888;28;20032;-88
2023/01/16 15:38:48;;;;;;;1.85;1.20;;;;;;;;;;5084673;28;20025;-85
2023/01/16 15:41:18;;;;;;;1.02;0.60;;;;;;;;;;5098089;28;20032;-87
2023/01/16 15:47:04;;;;;;;2.83;1.23;;;;;;;;;;5097110;28;20032;-88
2023/01/16 15:49:41;;;;;;;1.60;1.10;;;;;;;;;;5095955;28;20035;-87
2023/01/16 15:52:07;;;;;;;1.38;0.88;;;;;;;;;;5079436;28;20130;-85
2023/01/16 15:54:32;;;;;;;1.75;0.95;;;;;;;;;;5079444;28;20068;-85
2023/01/16 15:56:58;;;;;;;1.65;1.00;;;;;;;;;;5096899;28;20053;-88
2023/01/16 15:59:26;;;;;;;3.42;1.40;;;;;;;;;;5095964;28;20040;-86
2023/01/16 16:01:53;;;;;;;4.40;1.80;;;;;;;;;;5095831;28;20090;-88
2023/01/16 16:04:20;;;;;;;2.83;1.67;;;;;;;;;;5076998;28;20106;-86
2023/01/16 16:06:46;;;;;;;8.35;2.33;;;;;;;;;;5077265;28;20089;-89
2023/01/16 16:09:22;;;;;;;12.90;5.90;;;;;;;;;;5077327;28;20032;-87
2023/01/16 16:11:57;;;;;;;15.35;6.90;;;;;;;;;;5099875;22;20032;-82
2023/01/16 16:20:36;;;;;;;14.88;6.50;;;;;;;;;;5118904;28;20032;-83
2023/01/16 16:23:29;;;;;;;13.35;6.47;;;;;;;;;;5119268;28;20062;-83
2023/01/16 16:26:10;;;;;;;12.50;6.22;;;;;;;;;;5118727;28;20046;-82
2023/01/16 16:28:38;;;;;;;13.45;6.50;;;;;;;;;;5119096;28;20039;-84
2023/01/16 16:31:32;;;;;;;23.83;10.27;;;;;;;;;;5119753;28;20048;-82
2023/01/16 16:34:04;;;;;;;18.85;9.43;;;;;;;;;;5118344;28;20036;-82
2023/01/16 16:36:35;;;;;;;20.83;9.13;;;;;;;;;;5100264;28;20054;-82
2023/01/16 16:39:00;;;;;;;13.55;6.70;;;;;;;;;;5118928;28;20027;-84
2023/01/16 16:44:36;;;;;;;11.63;5.70;;;;;;;;;;5118185;28;20031;-83
2023/01/16 16:47:13;;;;;;;12.13;5.35;;;;;;;;;;5118590;28;20042;-84
2023/01/16 16:49:38;;;;;;;11.43;4.97;;;;;;;;;;5119198;28;20028;-82
2023/01/16 16:52:35;;;;;;;8.27;3.92;;;;;;;;;;5101075;28;20510;-83
2023/01/16 16:55:01;;;;;;;6.13;2.30;;;;;;;;;;5118885;28;20058;-82